sensor_id;sensor_type;location;lat;lon;timestamp;P1;durP1;ratioP1;P2;durP2;ratioP2
25249;SDS011;13201;51.148;13.738;2023-12-20T00:00:58;3.63;;;2.58;;
25249;SDS011;13201;51.148;13.738;2023-12-20T00:03:24;3.15;;;2.53;;
25249;SDS011;13201;51.148;13.738;2023-12-20T00:05:50;3.58;;;2.75;;
25249;SDS011;13201;51.148;13.738;2023-12-20T00:08:16;3.28;;;2.40;;
25249;SDS011;13201;51.148;13.738;2023-12-20T00:10:42;3.83;;;2.42;;
25249;SDS011;13201;51.148;13.738;2023-12-20T00:13:09;3.53;;;2.50;;
25249;SDS011;13201;51.148;13.738;2023-12-20T00:15:35;4.40;;;2.65;;
25249;SDS011;13201;51.148;13.738;2023-12-20T00:18:00;3.40;;;2.42;;
25249;SDS011;13201;51.148;13.738;2023-12-20T00:20:26;3.33;;;2.55;;
25249;SDS011;13201;51.148;13.738;2023-12-20T00:22:54;2.65;;;2.22;;
25249;SDS011;13201;51.148;13.738;2023-12-20T00:25:23;3.20;;;2.33;;
25249;SDS011;13201;51.148;13.738;2023-12-20T00:27:49;2.70;;;2.17;;
25249;SDS011;13201;51.148;13.738;2023-12-20T00:30:15;3.17;;;2.30;;
25249;SDS011;13201;51.148;13.738;2023-12-20T00:32:41;3.40;;;2.37;;
25249;SDS011;13201;51.148;13.738;2023-12-20T00:35:15;3.05;;;2.38;;
25249;SDS011;13201;51.148;13.738;2023-12-20T00:37:41;3.08;;;2.08;;
25249;SDS011;13201;51.148;13.738;2023-12-20T00:40:10;2.58;;;1.92;;
25249;SDS011;13201;51.148;13.738;2023-12-20T00:42:36;2.63;;;1.97;;
25249;SDS011;13201;51.148;13.738;2023-12-20T00:45:02;3.38;;;1.90;;
25249;SDS011;13201;51.148;13.738;2023-12-20T00:47:29;2.55;;;1.80;;
25249;SDS011;13201;51.148;13.738;2023-12-20T00:49:58;2.47;;;1.80;;
25249;SDS011;13201;51.148;13.738;2023-12-20T00:52:24;2.10;;;1.65;;
25249;SDS011;13201;51.148;13.738;2023-12-20T00:54:50;2.20;;;1.75;;
25249;SDS011;13201;51.148;13.738;2023-12-20T00:57:17;1.63;;;1.42;;
25249;SDS011;13201;51.148;13.738;2023-12-20T00:59:42;2.03;;;1.67;;
25249;SDS011;13201;51.148;13.738;2023-12-20T01:02:08;2.55;;;1.73;;
25249;SDS011;13201;51.148;13.738;2023-12-20T01:28:09;2.83;;;2.05;;
25249;SDS011;13201;51.148;13.738;2023-12-20T01:30:34;2.95;;;2.10;;
25249;SDS011;13201;51.148;13.738;2023-12-20T01:33:00;2.65;;;1.92;;
25249;SDS011;13201;51.148;13.738;2023-12-20T01:35:26;2.83;;;2.08;;
25249;SDS011;13201;51.148;13.738;2023-12-20T01:37:52;2.13;;;1.80;;
25249;SDS011;13201;51.148;13.738;2023-12-20T01:40:21;2.53;;;1.60;;
25249;SDS011;13201;51.148;13.738;2023-12-20T01:42:47;4.07;;;1.50;;
25249;SDS011;13201;51.148;13.738;2023-12-20T01:45:22;1.52;;;1.38;;
25249;SDS011;13201;51.148;13.738;2023-12-20T01:47:48;2.03;;;1.20;;
25249;SDS011;13201;51.148;13.738;2023-12-20T01:50:14;1.70;;;1.48;;
25249;SDS011;13201;51.148;13.738;2023-12-20T01:52:41;2.30;;;1.10;;
25249;SDS011;13201;51.148;13.738;2023-12-20T01:55:08;1.50;;;1.17;;
25249;SDS011;13201;51.148;13.738;2023-12-20T01:57:39;1.95;;;1.10;;
25249;SDS011;13201;51.148;13.738;2023-12-20T02:00:06;1.15;;;1.00;;
25249;SDS011;13201;51.148;13.738;2023-12-20T02:02:34;1.50;;;1.23;;
25249;SDS011;13201;51.148;13.738;2023-12-20T02:05:05;1.45;;;1.10;;
25249;SDS011;13201;51.148;13.738;2023-12-20T02:07:30;1.40;;;1.10;;
25249;SDS011;13201;51.148;13.738;2023-12-20T02:09:56;1.17;;;1.00;;
25249;SDS011;13201;51.148;13.738;2023-12-20T02:12:22;1.52;;;1.10;;
25249;SDS011;13201;51.148;13.738;2023-12-20T02:14:48;1.25;;;1.05;;
25249;SDS011;13201;51.148;13.738;2023-12-20T02:17:14;1.42;;;0.93;;
25249;SDS011;13201;51.148;13.738;2023-12-20T02:19:41;0.77;;;0.68;;
25249;SDS011;13201;51.148;13.738;2023-12-20T02:22:09;1.13;;;1.00;;
25249;SDS011;13201;51.148;13.738;2023-12-20T02:24:36;1.02;;;0.90;;
25249;SDS011;13201;51.148;13.738;2023-12-20T02:27:02;1.35;;;0.88;;
25249;SDS011;13201;51.148;13.738;2023-12-20T02:29:28;1.00;;;0.80;;
25249;SDS011;13201;51.148;13.738;2023-12-20T02:31:54;1.10;;;0.80;;
25249;SDS011;13201;51.148;13.738;2023-12-20T02:34:19;1.45;;;1.00;;
25249;SDS011;13201;51.148;13.738;2023-12-20T02:36:45;0.93;;;0.82;;
25249;SDS011;13201;51.148;13.738;2023-12-20T02:39:10;1.33;;;1.00;;
25249;SDS011;13201;51.148;13.738;2023-12-20T02:41:36;1.15;;;0.70;;
25249;SDS011;13201;51.148;13.738;2023-12-20T02:44:03;0.68;;;0.68;;
25249;SDS011;13201;51.148;13.738;2023-12-20T02:46:28;0.60;;;0.52;;
25249;SDS011;13201;51.148;13.738;2023-12-20T02:48:54;2.35;;;0.80;;
25249;SDS011;13201;51.148;13.738;2023-12-20T02:51:20;0.75;;;0.70;;
25249;SDS011;13201;51.148;13.738;2023-12-20T02:53:45;3.47;;;0.90;;
25249;SDS011;13201;51.148;13.738;2023-12-20T02:56:11;1.10;;;0.60;;
25249;SDS011;13201;51.148;13.738;2023-12-20T02:58:37;0.50;;;0.50;;
25249;SDS011;13201;51.148;13.738;2023-12-20T03:01:03;2.60;;;0.65;;
25249;SDS011;13201;51.148;13.738;2023-12-20T03:03:29;0.90;;;0.60;;
25249;SDS011;13201;51.148;13.738;2023-12-20T03:05:54;0.95;;;0.57;;
25249;SDS011;13201;51.148;13.738;2023-12-20T03:08:20;1.98;;;0.63;;
25249;SDS011;13201;51.148;13.738;2023-12-20T03:10:46;2.78;;;0.70;;
25249;SDS011;13201;51.148;13.738;2023-12-20T03:13:11;0.70;;;0.70;;
25249;SDS011;13201;51.148;13.738;2023-12-20T03:15:37;0.75;;;0.70;;
25249;SDS011;13201;51.148;13.738;2023-12-20T03:18:03;0.85;;;0.60;;
25249;SDS011;13201;51.148;13.738;2023-12-20T03:20:28;0.98;;;0.60;;
25249;SDS011;13201;51.148;13.738;2023-12-20T03:22:58;0.73;;;0.55;;
25249;SDS011;13201;51.148;13.738;2023-12-20T03:25:23;0.70;;;0.50;;
25249;SDS011;13201;51.148;13.738;2023-12-20T03:27:49;0.80;;;0.75;;
25249;SDS011;13201;51.148;13.738;2023-12-20T03:30:15;0.68;;;0.65;;
25249;SDS011;13201;51.148;13.738;2023-12-20T03:32:40;0.80;;;0.70;;
25249;SDS011;13201;51.148;13.738;2023-12-20T03:35:06;0.40;;;0.40;;
25249;SDS011;13201;51.148;13.738;2023-12-20T03:37:32;0.60;;;0.55;;
25249;SDS011;13201;51.148;13.738;2023-12-20T03:39:57;1.65;;;0.63;;
25249;SDS011;13201;51.148;13.738;2023-12-20T03:42:23;0.65;;;0.63;;
25249;SDS011;13201;51.148;13.738;2023-12-20T03:44:49;0.68;;;0.57;;
25249;SDS011;13201;51.148;13.738;2023-12-20T03:47:14;0.85;;;0.65;;
25249;SDS011;13201;51.148;13.738;2023-12-20T03:49:40;1.08;;;0.68;;
25249;SDS011;13201;51.148;13.738;2023-12-20T03:52:05;2.50;;;0.63;;
25249;SDS011;13201;51.148;13.738;2023-12-20T03:54:31;0.50;;;0.50;;
25249;SDS011;13201;51.148;13.738;2023-12-20T03:56:57;0.80;;;0.63;;
25249;SDS011;13201;51.148;13.738;2023-12-20T03:59:22;0.65;;;0.65;;
25249;SDS011;13201;51.148;13.738;2023-12-20T04:01:48;0.75;;;0.60;;
25249;SDS011;13201;51.148;13.738;2023-12-20T04:04:14;0.50;;;0.50;;
25249;SDS011;13201;51.148;13.738;2023-12-20T04:06:40;1.23;;;0.85;;
25249;SDS011;13201;51.148;13.738;2023-12-20T04:09:05;0.50;;;0.50;;
25249;SDS011;13201;51.148;13.738;2023-12-20T04:11:31;0.55;;;0.55;;
25249;SDS011;13201;51.148;13.738;2023-12-20T04:13:57;0.60;;;0.60;;
25249;SDS011;13201;51.148;13.738;2023-12-20T04:16:22;0.93;;;0.75;;
25249;SDS011;13201;51.148;13.738;2023-12-20T04:18:48;0.70;;;0.60;;
25249;SDS011;13201;51.148;13.738;2023-12-20T04:21:14;0.70;;;0.68;;
25249;SDS011;13201;51.148;13.738;2023-12-20T04:23:39;0.90;;;0.70;;
25249;SDS011;13201;51.148;13.738;2023-12-20T04:26:05;0.50;;;0.50;;
25249;SDS011;13201;51.148;13.738;2023-12-20T04:28:31;0.93;;;0.50;;
25249;SDS011;13201;51.148;13.738;2023-12-20T04:30:57;0.60;;;0.60;;
25249;SDS011;13201;51.148;13.738;2023-12-20T04:33:22;0.68;;;0.60;;
25249;SDS011;13201;51.148;13.738;2023-12-20T04:35:48;0.77;;;0.70;;
25249;SDS011;13201;51.148;13.738;2023-12-20T04:38:14;0.80;;;0.70;;
25249;SDS011;13201;51.148;13.738;2023-12-20T04:40:39;0.93;;;0.47;;
25249;SDS011;13201;51.148;13.738;2023-12-20T04:43:06;0.77;;;0.60;;
25249;SDS011;13201;51.148;13.738;2023-12-20T04:45:33;0.60;;;0.60;;
25249;SDS011;13201;51.148;13.738;2023-12-20T04:47:59;0.50;;;0.50;;
25249;SDS011;13201;51.148;13.738;2023-12-20T04:50:26;0.60;;;0.60;;
25249;SDS011;13201;51.148;13.738;2023-12-20T04:52:51;0.73;;;0.68;;
25249;SDS011;13201;51.148;13.738;2023-12-20T04:55:17;0.70;;;0.70;;
25249;SDS011;13201;51.148;13.738;2023-12-20T04:57:43;0.95;;;0.70;;
25249;SDS011;13201;51.148;13.738;2023-12-20T05:00:08;0.93;;;0.57;;
25249;SDS011;13201;51.148;13.738;2023-12-20T05:02:35;0.50;;;0.50;;
25249;SDS011;13201;51.148;13.738;2023-12-20T05:05:01;0.50;;;0.50;;
25249;SDS011;13201;51.148;13.738;2023-12-20T05:07:27;0.50;;;0.50;;
25249;SDS011;13201;51.148;13.738;2023-12-20T05:09:53;0.88;;;0.65;;
25249;SDS011;13201;51.148;13.738;2023-12-20T05:12:19;0.90;;;0.60;;
25249;SDS011;13201;51.148;13.738;2023-12-20T05:14:44;0.60;;;0.60;;
25249;SDS011;13201;51.148;13.738;2023-12-20T05:17:11;0.87;;;0.53;;
25249;SDS011;13201;51.148;13.738;2023-12-20T05:19:36;0.40;;;0.40;;
25249;SDS011;13201;51.148;13.738;2023-12-20T05:22:02;0.70;;;0.52;;
25249;SDS011;13201;51.148;13.738;2023-12-20T05:24:28;1.30;;;0.55;;
25249;SDS011;13201;51.148;13.738;2023-12-20T05:26:54;0.60;;;0.60;;
25249;SDS011;13201;51.148;13.738;2023-12-20T05:29:20;0.50;;;0.50;;
25249;SDS011;13201;51.148;13.738;2023-12-20T05:31:45;0.52;;;0.50;;
25249;SDS011;13201;51.148;13.738;2023-12-20T05:34:11;2.30;;;0.60;;
25249;SDS011;13201;51.148;13.738;2023-12-20T05:36:37;0.60;;;0.60;;
25249;SDS011;13201;51.148;13.738;2023-12-20T05:39:04;0.70;;;0.65;;
25249;SDS011;13201;51.148;13.738;2023-12-20T05:41:30;0.60;;;0.43;;
25249;SDS011;13201;51.148;13.738;2023-12-20T05:43:56;1.95;;;0.60;;
25249;SDS011;13201;51.148;13.738;2023-12-20T05:46:23;0.50;;;0.50;;
25249;SDS011;13201;51.148;13.738;2023-12-20T05:48:49;0.60;;;0.60;;
25249;SDS011;13201;51.148;13.738;2023-12-20T05:51:15;0.50;;;0.50;;
25249;SDS011;13201;51.148;13.738;2023-12-20T05:53:40;0.60;;;0.60;;
25249;SDS011;13201;51.148;13.738;2023-12-20T05:56:06;0.60;;;0.60;;
25249;SDS011;13201;51.148;13.738;2023-12-20T05:58:32;0.85;;;0.70;;
25249;SDS011;13201;51.148;13.738;2023-12-20T06:00:58;0.43;;;0.43;;
25249;SDS011;13201;51.148;13.738;2023-12-20T06:03:24;0.70;;;0.70;;
25249;SDS011;13201;51.148;13.738;2023-12-20T06:05:50;0.73;;;0.63;;
25249;SDS011;13201;51.148;13.738;2023-12-20T06:08:15;0.70;;;0.68;;
25249;SDS011;13201;51.148;13.738;2023-12-20T06:10:41;1.33;;;0.63;;
25249;SDS011;13201;51.148;13.738;2023-12-20T06:13:07;0.55;;;0.52;;
25249;SDS011;13201;51.148;13.738;2023-12-20T06:15:32;0.63;;;0.63;;
25249;SDS011;13201;51.148;13.738;2023-12-20T06:17:58;0.50;;;0.50;;
25249;SDS011;13201;51.148;13.738;2023-12-20T06:20:24;0.63;;;0.60;;
25249;SDS011;13201;51.148;13.738;2023-12-20T06:22:50;1.10;;;0.80;;
25249;SDS011;13201;51.148;13.738;2023-12-20T06:25:16;0.55;;;0.50;;
25249;SDS011;13201;51.148;13.738;2023-12-20T06:27:41;1.00;;;0.70;;
25249;SDS011;13201;51.148;13.738;2023-12-20T06:30:07;0.60;;;0.60;;
25249;SDS011;13201;51.148;13.738;2023-12-20T06:32:36;1.15;;;0.73;;
25249;SDS011;13201;51.148;13.738;2023-12-20T06:35:03;0.85;;;0.77;;
25249;SDS011;13201;51.148;13.738;2023-12-20T06:39:55;1.27;;;0.90;;
25249;SDS011;13201;51.148;13.738;2023-12-20T06:42:21;1.08;;;0.75;;
25249;SDS011;13201;51.148;13.738;2023-12-20T06:44:47;1.08;;;0.98;;
25249;SDS011;13201;51.148;13.738;2023-12-20T06:47:13;1.00;;;0.80;;
25249;SDS011;13201;51.148;13.738;2023-12-20T06:49:39;1.67;;;0.98;;
25249;SDS011;13201;51.148;13.738;2023-12-20T06:52:05;2.23;;;1.13;;
25249;SDS011;13201;51.148;13.738;2023-12-20T06:54:31;3.38;;;1.10;;
25249;SDS011;13201;51.148;13.738;2023-12-20T06:56:59;2.38;;;1.30;;
25249;SDS011;13201;51.148;13.738;2023-12-20T06:59:25;1.83;;;1.27;;
25249;SDS011;13201;51.148;13.738;2023-12-20T07:01:51;1.63;;;1.30;;
25249;SDS011;13201;51.148;13.738;2023-12-20T07:04:16;2.55;;;1.30;;
25249;SDS011;13201;51.148;13.738;2023-12-20T07:06:46;4.43;;;1.15;;
25249;SDS011;13201;51.148;13.738;2023-12-20T07:09:13;1.95;;;0.80;;
25249;SDS011;13201;51.148;13.738;2023-12-20T07:11:39;1.55;;;1.00;;
25249;SDS011;13201;51.148;13.738;2023-12-20T07:14:05;2.73;;;1.00;;
25249;SDS011;13201;51.148;13.738;2023-12-20T07:16:30;1.70;;;0.70;;
25249;SDS011;13201;51.148;13.738;2023-12-20T07:18:57;2.27;;;1.20;;
25249;SDS011;13201;51.148;13.738;2023-12-20T07:21:22;1.92;;;0.90;;
25249;SDS011;13201;51.148;13.738;2023-12-20T07:23:48;1.30;;;1.20;;
25249;SDS011;13201;51.148;13.738;2023-12-20T07:26:15;1.92;;;1.25;;
25249;SDS011;13201;51.148;13.738;2023-12-20T07:28:40;1.48;;;1.17;;
25249;SDS011;13201;51.148;13.738;2023-12-20T07:31:06;2.95;;;1.27;;
25249;SDS011;13201;51.148;13.738;2023-12-20T07:33:32;3.17;;;1.50;;
25249;SDS011;13201;51.148;13.738;2023-12-20T07:35:59;3.03;;;1.70;;
25249;SDS011;13201;51.148;13.738;2023-12-20T07:38:25;1.60;;;1.50;;
25249;SDS011;13201;51.148;13.738;2023-12-20T07:40:51;2.10;;;1.90;;
25249;SDS011;13201;51.148;13.738;2023-12-20T07:43:17;2.22;;;1.90;;
25249;SDS011;13201;51.148;13.738;2023-12-20T07:45:42;2.28;;;1.85;;
25249;SDS011;13201;51.148;13.738;2023-12-20T07:48:08;3.70;;;2.25;;
25249;SDS011;13201;51.148;13.738;2023-12-20T07:50:34;3.13;;;2.15;;
25249;SDS011;13201;51.148;13.738;2023-12-20T07:53:00;2.40;;;2.20;;
25249;SDS011;13201;51.148;13.738;2023-12-20T07:55:26;3.03;;;2.00;;
25249;SDS011;13201;51.148;13.738;2023-12-20T07:57:52;2.70;;;2.37;;
25249;SDS011;13201;51.148;13.738;2023-12-20T08:00:18;3.28;;;2.10;;
25249;SDS011;13201;51.148;13.738;2023-12-20T08:02:44;5.10;;;2.40;;
25249;SDS011;13201;51.148;13.738;2023-12-20T08:05:10;3.42;;;2.13;;
25249;SDS011;13201;51.148;13.738;2023-12-20T08:07:36;2.85;;;2.30;;
25249;SDS011;13201;51.148;13.738;2023-12-20T08:10:01;3.85;;;2.30;;
25249;SDS011;13201;51.148;13.738;2023-12-20T08:12:27;3.15;;;2.22;;
25249;SDS011;13201;51.148;13.738;2023-12-20T08:14:53;2.72;;;2.40;;
25249;SDS011;13201;51.148;13.738;2023-12-20T08:17:19;2.87;;;2.47;;
25249;SDS011;13201;51.148;13.738;2023-12-20T08:19:45;2.65;;;2.22;;
25249;SDS011;13201;51.148;13.738;2023-12-20T08:22:11;3.35;;;2.38;;
25249;SDS011;13201;51.148;13.738;2023-12-20T08:24:37;5.20;;;2.42;;
25249;SDS011;13201;51.148;13.738;2023-12-20T08:27:03;4.70;;;2.17;;
25249;SDS011;13201;51.148;13.738;2023-12-20T08:29:29;2.97;;;2.08;;
25249;SDS011;13201;51.148;13.738;2023-12-20T08:31:55;3.63;;;2.45;;
25249;SDS011;13201;51.148;13.738;2023-12-20T08:34:21;5.68;;;2.30;;
25249;SDS011;13201;51.148;13.738;2023-12-20T08:36:48;4.25;;;2.13;;
25249;SDS011;13201;51.148;13.738;2023-12-20T08:39:15;4.03;;;2.30;;
25249;SDS011;13201;51.148;13.738;2023-12-20T08:41:40;4.05;;;2.05;;
25249;SDS011;13201;51.148;13.738;2023-12-20T08:44:06;2.95;;;2.00;;
25249;SDS011;13201;51.148;13.738;2023-12-20T08:46:32;3.72;;;1.60;;
25249;SDS011;13201;51.148;13.738;2023-12-20T08:48:57;2.50;;;1.40;;
25249;SDS011;13201;51.148;13.738;2023-12-20T08:51:23;3.80;;;1.67;;
25249;SDS011;13201;51.148;13.738;2023-12-20T08:53:50;3.72;;;1.45;;
25249;SDS011;13201;51.148;13.738;2023-12-20T08:56:16;2.60;;;1.23;;
25249;SDS011;13201;51.148;13.738;2023-12-20T08:58:43;2.80;;;1.10;;
25249;SDS011;13201;51.148;13.738;2023-12-20T09:01:09;4.05;;;1.17;;
25249;SDS011;13201;51.148;13.738;2023-12-20T09:03:35;2.22;;;1.00;;
25249;SDS011;13201;51.148;13.738;2023-12-20T09:06:01;4.90;;;0.95;;
25249;SDS011;13201;51.148;13.738;2023-12-20T09:08:27;2.78;;;0.73;;
25249;SDS011;13201;51.148;13.738;2023-12-20T09:10:52;2.83;;;1.00;;
25249;SDS011;13201;51.148;13.738;2023-12-20T09:13:18;4.28;;;1.20;;
25249;SDS011;13201;51.148;13.738;2023-12-20T09:15:44;4.53;;;0.80;;
25249;SDS011;13201;51.148;13.738;2023-12-20T09:18:09;2.45;;;1.05;;
25249;SDS011;13201;51.148;13.738;2023-12-20T09:20:35;3.72;;;1.00;;
25249;SDS011;13201;51.148;13.738;2023-12-20T09:23:01;4.25;;;0.80;;
25249;SDS011;13201;51.148;13.738;2023-12-20T09:25:26;5.65;;;0.90;;
25249;SDS011;13201;51.148;13.738;2023-12-20T09:27:53;3.83;;;0.80;;
25249;SDS011;13201;51.148;13.738;2023-12-20T09:30:18;3.50;;;1.00;;
25249;SDS011;13201;51.148;13.738;2023-12-20T09:32:44;1.95;;;0.80;;
25249;SDS011;13201;51.148;13.738;2023-12-20T09:35:10;3.17;;;1.00;;
25249;SDS011;13201;51.148;13.738;2023-12-20T09:37:36;4.20;;;1.10;;
25249;SDS011;13201;51.148;13.738;2023-12-20T09:40:02;4.38;;;1.13;;
25249;SDS011;13201;51.148;13.738;2023-12-20T09:45:26;4.75;;;1.10;;
25249;SDS011;13201;51.148;13.738;2023-12-20T09:47:52;3.92;;;1.10;;
25249;SDS011;13201;51.148;13.738;2023-12-20T09:52:47;3.45;;;0.70;;
25249;SDS011;13201;51.148;13.738;2023-12-20T09:55:16;2.05;;;1.10;;
25249;SDS011;13201;51.148;13.738;2023-12-20T09:57:44;3.10;;;1.00;;
25249;SDS011;13201;51.148;13.738;2023-12-20T10:00:10;1.38;;;0.95;;
25249;SDS011;13201;51.148;13.738;2023-12-20T10:02:37;6.50;;;1.60;;
25249;SDS011;13201;51.148;13.738;2023-12-20T10:05:07;2.40;;;1.10;;
25249;SDS011;13201;51.148;13.738;2023-12-20T10:07:38;4.57;;;1.30;;
25249;SDS011;13201;51.148;13.738;2023-12-20T10:10:03;3.47;;;1.05;;
25249;SDS011;13201;51.148;13.738;2023-12-20T10:12:30;4.10;;;1.23;;
25249;SDS011;13201;51.148;13.738;2023-12-20T10:14:57;3.65;;;1.05;;
25249;SDS011;13201;51.148;13.738;2023-12-20T10:17:23;3.03;;;1.02;;
25249;SDS011;13201;51.148;13.738;2023-12-20T10:19:49;5.13;;;1.30;;
25249;SDS011;13201;51.148;13.738;2023-12-20T10:22:14;5.13;;;1.20;;
25249;SDS011;13201;51.148;13.738;2023-12-20T10:24:40;3.95;;;1.10;;
25249;SDS011;13201;51.148;13.738;2023-12-20T10:27:07;5.05;;;1.20;;
25249;SDS011;13201;51.148;13.738;2023-12-20T10:29:36;5.38;;;1.50;;
25249;SDS011;13201;51.148;13.738;2023-12-20T10:32:21;3.63;;;1.00;;
25249;SDS011;13201;51.148;13.738;2023-12-20T10:34:47;6.20;;;1.13;;
25249;SDS011;13201;51.148;13.738;2023-12-20T10:37:13;3.47;;;1.05;;
25249;SDS011;13201;51.148;13.738;2023-12-20T10:39:38;5.35;;;1.20;;
25249;SDS011;13201;51.148;13.738;2023-12-20T10:42:06;3.45;;;1.30;;
25249;SDS011;13201;51.148;13.738;2023-12-20T10:44:32;1.97;;;1.00;;
25249;SDS011;13201;51.148;13.738;2023-12-20T10:46:57;5.10;;;1.17;;
25249;SDS011;13201;51.148;13.738;2023-12-20T10:49:24;4.78;;;1.50;;
25249;SDS011;13201;51.148;13.738;2023-12-20T10:51:52;3.15;;;1.05;;
25249;SDS011;13201;51.148;13.738;2023-12-20T10:54:19;5.07;;;1.42;;
25249;SDS011;13201;51.148;13.738;2023-12-20T10:56:45;3.88;;;1.10;;
25249;SDS011;13201;51.148;13.738;2023-12-20T10:59:12;3.83;;;1.00;;
25249;SDS011;13201;51.148;13.738;2023-12-20T11:01:43;4.60;;;1.70;;
25249;SDS011;13201;51.148;13.738;2023-12-20T11:04:10;4.32;;;1.20;;
25249;SDS011;13201;51.148;13.738;2023-12-20T11:06:51;5.45;;;1.60;;
25249;SDS011;13201;51.148;13.738;2023-12-20T11:09:24;3.67;;;1.30;;
25249;SDS011;13201;51.148;13.738;2023-12-20T11:11:59;4.65;;;1.33;;
25249;SDS011;13201;51.148;13.738;2023-12-20T11:14:47;5.43;;;1.42;;
25249;SDS011;13201;51.148;13.738;2023-12-20T11:17:15;8.07;;;1.63;;
25249;SDS011;13201;51.148;13.738;2023-12-20T11:22:26;3.42;;;1.30;;
25249;SDS011;13201;51.148;13.738;2023-12-20T11:24:54;3.97;;;1.17;;
25249;SDS011;13201;51.148;13.738;2023-12-20T11:27:24;3.65;;;1.30;;
25249;SDS011;13201;51.148;13.738;2023-12-20T11:29:54;4.35;;;1.42;;
25249;SDS011;13201;51.148;13.738;2023-12-20T11:34:53;4.85;;;1.35;;
25249;SDS011;13201;51.148;13.738;2023-12-20T11:37:19;3.92;;;1.40;;
25249;SDS011;13201;51.148;13.738;2023-12-20T11:39:45;6.03;;;1.58;;
25249;SDS011;13201;51.148;13.738;2023-12-20T11:42:20;6.07;;;1.50;;
25249;SDS011;13201;51.148;13.738;2023-12-20T11:44:46;2.67;;;1.10;;
25249;SDS011;13201;51.148;13.738;2023-12-20T11:47:13;4.32;;;1.58;;
25249;SDS011;13201;51.148;13.738;2023-12-20T11:49:40;4.38;;;1.60;;
25249;SDS011;13201;51.148;13.738;2023-12-20T11:52:06;5.32;;;1.70;;
25249;SDS011;13201;51.148;13.738;2023-12-20T11:54:32;5.72;;;1.35;;
25249;SDS011;13201;51.148;13.738;2023-12-20T11:56:57;3.75;;;1.35;;
25249;SDS011;13201;51.148;13.738;2023-12-20T11:59:23;3.65;;;1.30;;
25249;SDS011;13201;51.148;13.738;2023-12-20T12:01:49;7.57;;;1.67;;
25249;SDS011;13201;51.148;13.738;2023-12-20T12:04:16;3.95;;;1.38;;
25249;SDS011;13201;51.148;13.738;2023-12-20T12:06:43;5.45;;;1.35;;
25249;SDS011;13201;51.148;13.738;2023-12-20T12:09:10;4.32;;;1.38;;
25249;SDS011;13201;51.148;13.738;2023-12-20T12:11:35;3.78;;;1.35;;
25249;SDS011;13201;51.148;13.738;2023-12-20T12:14:01;4.55;;;1.40;;
25249;SDS011;13201;51.148;13.738;2023-12-20T12:16:27;4.38;;;1.27;;
25249;SDS011;13201;51.148;13.738;2023-12-20T12:18:56;4.85;;;1.45;;
25249;SDS011;13201;51.148;13.738;2023-12-20T12:21:22;4.60;;;1.40;;
25249;SDS011;13201;51.148;13.738;2023-12-20T12:23:49;6.45;;;1.33;;
25249;SDS011;13201;51.148;13.738;2023-12-20T12:26:14;5.47;;;1.35;;
25249;SDS011;13201;51.148;13.738;2023-12-20T12:28:41;3.35;;;1.17;;
25249;SDS011;13201;51.148;13.738;2023-12-20T12:31:07;7.22;;;1.73;;
25249;SDS011;13201;51.148;13.738;2023-12-20T12:33:33;3.30;;;1.02;;
25249;SDS011;13201;51.148;13.738;2023-12-20T12:36:03;3.80;;;1.13;;
25249;SDS011;13201;51.148;13.738;2023-12-20T12:38:30;4.03;;;1.23;;
25249;SDS011;13201;51.148;13.738;2023-12-20T12:40:56;3.25;;;1.15;;
25249;SDS011;13201;51.148;13.738;2023-12-20T12:43:22;4.32;;;1.40;;
25249;SDS011;13201;51.148;13.738;2023-12-20T12:45:48;6.90;;;1.40;;
25249;SDS011;13201;51.148;13.738;2023-12-20T12:48:14;7.65;;;1.63;;
25249;SDS011;13201;51.148;13.738;2023-12-20T12:50:40;5.05;;;1.30;;
25249;SDS011;13201;51.148;13.738;2023-12-20T12:53:05;8.10;;;1.50;;
25249;SDS011;13201;51.148;13.738;2023-12-20T12:55:31;5.28;;;1.50;;
25249;SDS011;13201;51.148;13.738;2023-12-20T12:57:57;9.15;;;1.30;;
25249;SDS011;13201;51.148;13.738;2023-12-20T13:00:23;6.25;;;1.70;;
25249;SDS011;13201;51.148;13.738;2023-12-20T13:02:50;4.05;;;1.40;;
25249;SDS011;13201;51.148;13.738;2023-12-20T13:05:15;7.20;;;1.95;;
25249;SDS011;13201;51.148;13.738;2023-12-20T13:07:42;6.10;;;1.20;;
25249;SDS011;13201;51.148;13.738;2023-12-20T13:10:10;4.30;;;1.08;;
25249;SDS011;13201;51.148;13.738;2023-12-20T13:12:36;2.72;;;1.02;;
25249;SDS011;13201;51.148;13.738;2023-12-20T13:15:02;2.38;;;1.00;;
25249;SDS011;13201;51.148;13.738;2023-12-20T13:17:29;2.45;;;1.10;;
25249;SDS011;13201;51.148;13.738;2023-12-20T13:19:55;4.10;;;1.10;;
25249;SDS011;13201;51.148;13.738;2023-12-20T13:22:20;5.78;;;1.60;;
25249;SDS011;13201;51.148;13.738;2023-12-20T13:24:46;2.85;;;1.20;;
25249;SDS011;13201;51.148;13.738;2023-12-20T13:27:12;4.40;;;1.67;;
25249;SDS011;13201;51.148;13.738;2023-12-20T13:29:37;5.88;;;1.33;;
25249;SDS011;13201;51.148;13.738;2023-12-20T13:32:03;5.15;;;1.50;;
25249;SDS011;13201;51.148;13.738;2023-12-20T13:34:29;6.25;;;1.42;;
25249;SDS011;13201;51.148;13.738;2023-12-20T13:36:55;4.70;;;1.48;;
25249;SDS011;13201;51.148;13.738;2023-12-20T13:39:21;2.63;;;0.90;;
25249;SDS011;13201;51.148;13.738;2023-12-20T13:41:47;5.57;;;1.20;;
25249;SDS011;13201;51.148;13.738;2023-12-20T13:44:13;3.60;;;1.20;;
25249;SDS011;13201;51.148;13.738;2023-12-20T13:46:39;2.30;;;1.00;;
25249;SDS011;13201;51.148;13.738;2023-12-20T13:51:31;3.70;;;1.10;;
25249;SDS011;13201;51.148;13.738;2023-12-20T13:53:57;4.70;;;1.15;;
25249;SDS011;13201;51.148;13.738;2023-12-20T13:56:22;5.43;;;1.33;;
25249;SDS011;13201;51.148;13.738;2023-12-20T13:58:48;4.38;;;1.00;;
25249;SDS011;13201;51.148;13.738;2023-12-20T14:01:15;5.22;;;0.82;;
25249;SDS011;13201;51.148;13.738;2023-12-20T14:03:41;6.22;;;1.70;;
25249;SDS011;13201;51.148;13.738;2023-12-20T14:06:07;3.05;;;1.15;;
25249;SDS011;13201;51.148;13.738;2023-12-20T14:08:33;3.88;;;1.10;;
25249;SDS011;13201;51.148;13.738;2023-12-20T14:10:59;6.80;;;1.30;;
25249;SDS011;13201;51.148;13.738;2023-12-20T14:13:26;3.67;;;1.20;;
25249;SDS011;13201;51.148;13.738;2023-12-20T14:15:52;5.20;;;1.30;;
25249;SDS011;13201;51.148;13.738;2023-12-20T14:18:19;5.03;;;1.35;;
25249;SDS011;13201;51.148;13.738;2023-12-20T14:20:45;2.72;;;1.15;;
25249;SDS011;13201;51.148;13.738;2023-12-20T14:23:12;2.58;;;1.10;;
25249;SDS011;13201;51.148;13.738;2023-12-20T14:25:40;2.20;;;1.00;;
25249;SDS011;13201;51.148;13.738;2023-12-20T14:30:32;3.27;;;1.03;;
25249;SDS011;13201;51.148;13.738;2023-12-20T14:32:58;5.67;;;1.07;;
25249;SDS011;13201;51.148;13.738;2023-12-20T14:35:24;3.35;;;0.80;;
25249;SDS011;13201;51.148;13.738;2023-12-20T14:37:50;6.20;;;1.50;;
25249;SDS011;13201;51.148;13.738;2023-12-20T14:40:15;3.05;;;1.60;;
25249;SDS011;13201;51.148;13.738;2023-12-20T14:42:45;5.37;;;1.20;;
25249;SDS011;13201;51.148;13.738;2023-12-20T14:45:11;3.22;;;1.08;;
25249;SDS011;13201;51.148;13.738;2023-12-20T14:47:38;4.72;;;1.27;;
25249;SDS011;13201;51.148;13.738;2023-12-20T14:50:04;2.63;;;0.90;;
25249;SDS011;13201;51.148;13.738;2023-12-20T14:52:31;4.55;;;1.10;;
25249;SDS011;13201;51.148;13.738;2023-12-20T14:55:00;3.85;;;1.05;;
25249;SDS011;13201;51.148;13.738;2023-12-20T14:57:27;2.38;;;1.10;;
25249;SDS011;13201;51.148;13.738;2023-12-20T14:59:54;3.65;;;1.30;;
25249;SDS011;13201;51.148;13.738;2023-12-20T15:02:21;2.67;;;1.10;;
25249;SDS011;13201;51.148;13.738;2023-12-20T15:04:46;8.52;;;1.17;;
25249;SDS011;13201;51.148;13.738;2023-12-20T15:07:12;4.35;;;1.20;;
25249;SDS011;13201;51.148;13.738;2023-12-20T15:09:38;4.60;;;1.05;;